Time;durP1;ratioP1;P1;durP2;ratioP2;P2;SDS_P1;SDS_P2;PMS_P1;PMS_P2;Temp;Humidity;BMP_temperature;BMP_pressure;BME280_temperature;BME280_humidity;BME280_pressure;Samples;Min_cycle;Max_cycle;Signal;HPM_P1;HPM_P2
2021/07/29 00:00:45;;;;;;;11.53;3.90;;;;;;;22.67;100.00;98648.11;1636709;87;20964;-71
2021/07/29 00:03:13;;;;;;;8.53;3.35;;;;;;;22.65;100.00;98648.69;1636599;87;20889;-70
2021/07/29 00:05:42;;;;;;;10.78;3.75;;;;;;;22.60;100.00;98651.67;1635178;87;21014;-71
2021/07/29 00:08:12;;;;;;;7.40;3.40;;;;;;;22.57;100.00;98643.80;1636488;87;21459;-71
2021/07/29 00:10:42;;;;;;;7.75;4.25;;;;;;;22.49;100.00;98634.00;1636589;87;20912;-71
2021/07/29 00:13:11;;;;;;;16.10;3.52;;;;;;;22.41;100.00;98636.31;1636835;87;20988;-71
2021/07/29 00:15:41;;;;;;;7.10;3.02;;;;;;;22.38;100.00;98640.05;1636676;87;21557;-71
2021/07/29 00:20:41;;;;;;;6.40;3.05;;;;;;;;;;1636482;87;21149;-71
2021/07/29 00:23:11;;;;;;;8.35;3.25;;;;;;;22.34;100.00;98639.86;1635142;87;21035;-71
2021/07/29 00:25:40;;;;;;;7.80;3.30;;;;;;;22.34;100.00;98633.62;1633021;87;21552;-71
2021/07/29 00:28:09;;;;;;;10.68;3.47;;;;;;;22.34;100.00;98630.94;1612317;87;21618;-72
2021/07/29 00:30:38;;;;;;;8.50;3.67;;;;;;;22.33;100.00;98626.04;1612745;87;21687;-71
2021/07/29 00:33:06;;;;;;;6.65;3.70;;;;;;;22.33;100.00;98628.73;1636458;87;21157;-71
2021/07/29 00:35:35;;;;;;;5.22;3.20;;;;;;;22.32;100.00;98624.31;1616545;87;20964;-71
2021/07/29 00:38:03;;;;;;;9.75;3.72;;;;;;;22.33;100.00;98625.17;1636864;87;21048;-71
2021/07/29 00:40:32;;;;;;;6.42;2.90;;;;;;;22.32;100.00;98623.45;1636641;87;21016;-71
2021/07/29 00:43:00;;;;;;;7.03;3.40;;;;;;;22.33;100.00;98634.10;1636615;87;20948;-70
2021/07/29 00:45:30;;;;;;;9.88;3.22;;;;;;;22.34;100.00;98631.80;1623850;87;21083;-71
2021/07/29 00:47:58;;;;;;;10.00;3.62;;;;;;;22.35;100.00;98614.72;1636475;87;20948;-71
2021/07/29 00:50:29;;;;;;;6.03;3.50;;;;;;;22.34;100.00;98614.33;1637072;87;20952;-70
2021/07/29 00:52:58;;;;;;;7.20;3.85;;;;;;;22.34;100.00;98604.93;1636584;87;21082;-70
2021/07/29 00:55:26;;;;;;;7.75;3.50;;;;;;;22.35;100.00;98607.13;1645650;87;20979;-70
2021/07/29 00:57:57;;;;;;;6.22;3.33;;;;;;;22.34;100.00;98606.27;1636722;87;21427;-70
2021/07/29 01:00:27;;;;;;;;;;;;;;;22.34;100.00;98608.09;1635480;87;20988;-71
2021/07/29 01:02:56;;;;;;;9.95;3.65;;;;;;;22.33;100.00;98611.74;1636573;86;20139;-69
2021/07/29 01:05:25;;;;;;;11.80;3.30;;;;;;;22.32;100.00;98599.27;1636503;87;21037;-70
2021/07/29 01:07:54;;;;;;;11.50;3.58;;;;;;;22.30;100.00;98598.88;1617817;88;20931;-69
2021/07/29 01:10:24;;;;;;;13.35;4.00;;;;;;;22.31;100.00;98590.34;1625920;87;21430;-69
2021/07/29 01:12:55;;;;;;;7.22;3.80;;;;;;;22.29;100.00;98589.58;1634919;87;20956;-70
2021/07/29 01:15:25;;;;;;;6.23;3.83;;;;;;;22.27;100.00;98592.36;1636818;87;21519;-69
2021/07/29 01:18:01;;;;;;;6.12;4.00;;;;;;;22.22;100.00;98594.44;1636777;87;21430;-69
2021/07/29 01:20:30;;;;;;;6.58;3.85;;;;;;;22.17;100.00;98591.66;1623727;87;20872;-68
2021/07/29 01:22:59;;;;;;;6.87;3.98;;;;;;;22.14;100.00;98587.81;1636847;87;21439;-68
2021/07/29 01:25:27;;;;;;;7.47;3.42;;;;;;;22.11;100.00;98577.27;1634488;87;20873;-68
2021/07/29 01:27:57;;;;;;;12.07;4.15;;;;;;;22.08;100.00;98582.34;1636757;87;20968;-69
2021/07/29 01:30:27;;;;;;;11.53;3.98;;;;;;;22.03;100.00;98584.89;1636887;87;20948;-69
2021/07/29 01:32:56;;;;;;;11.38;3.67;;;;;;;22.03;100.00;98588.92;1636767;87;20960;-68
2021/07/29 01:35:24;;;;;;;11.18;3.70;;;;;;;22.03;100.00;98583.11;1636745;87;21121;-68
2021/07/29 01:37:53;;;;;;;10.05;3.95;;;;;;;22.03;100.00;98573.70;1636677;87;21466;-68
2021/07/29 01:40:22;;;;;;;9.78;4.20;;;;;;;22.04;100.00;98571.88;1636538;87;21522;-68
2021/07/29 01:42:52;;;;;;;12.43;4.20;;;;;;;22.02;100.00;98567.91;1636392;87;20985;-68
2021/07/29 01:45:19;;;;;;;6.40;4.12;;;;;;;21.97;100.00;98568.20;1636383;87;20972;-68
2021/07/29 01:47:48;;;;;;;7.78;3.95;;;;;;;21.97;100.00;98570.89;1636778;87;21105;-68
2021/07/29 01:50:17;;;;;;;12.70;3.87;;;;;;;22.00;100.00;98572.04;1636705;87;20928;-67
2021/07/29 01:52:46;;;;;;;10.68;3.62;;;;;;;22.00;100.00;98568.02;1636382;87;21150;-67
2021/07/29 01:55:14;;;;;;;10.58;4.08;;;;;;;21.99;100.00;98556.88;1632746;87;21044;-67
2021/07/29 01:57:42;;;;;;;7.00;3.87;;;;;;;21.92;100.00;98560.91;1635069;87;21028;-68
2021/07/29 02:00:12;;;;;;;6.50;2.90;;;;;;;21.83;100.00;98565.98;1636626;87;21593;-70
2021/07/29 02:02:43;;;;;;;6.72;3.80;;;;;;;21.80;100.00;98564.34;1636203;87;21008;-71
2021/07/29 02:05:11;;;;;;;11.55;3.65;;;;;;;21.84;100.00;98575.28;1620039;87;20966;-69
2021/07/29 02:07:39;;;;;;;9.25;4.05;;;;;;;21.87;100.00;98576.92;1648816;87;20943;-69
2021/07/29 02:10:09;;;;;;;10.40;4.03;;;;;;;21.88;100.00;98573.27;1651847;85;20883;-69
2021/07/29 02:12:39;;;;;;;11.97;4.00;;;;;;;21.90;100.00;98560.62;1652046;85;21470;-69
2021/07/29 02:15:11;;;;;;;7.67;4.40;;;;;;;21.84;100.00;98551.13;1640458;86;21410;-68
2021/07/29 02:17:40;;;;;;;10.20;4.40;;;;;;;21.61;100.00;98543.09;1638916;87;21442;-68
2021/07/29 02:20:10;;;;;;;9.33;4.00;;;;;;;21.36;100.00;98544.19;1650026;86;21447;-68
2021/07/29 02:22:38;;;;;;;8.10;4.12;;;;;;;21.31;100.00;98546.28;1642304;86;20951;-69
2021/07/29 02:25:12;;;;;;;7.05;3.75;;;;;;;21.37;100.00;98552.63;1646796;87;21419;-69
2021/07/29 02:27:39;;;;;;;8.68;4.28;;;;;;;21.41;100.00;98551.96;1645893;86;21020;-69
2021/07/29 02:30:11;;;;;;;12.60;4.25;;;;;;;21.43;100.00;98567.02;1638464;87;20903;-69
2021/07/29 02:32:39;;;;;;;7.78;3.72;;;;;;;21.44;100.00;98570.08;1638374;86;21011;-69
2021/07/29 02:35:09;;;;;;;10.18;3.80;;;;;;;21.45;100.00;98580.34;1638404;86;20960;-69
2021/07/29 02:37:38;;;;;;;7.08;3.83;;;;;;;21.46;100.00;98574.02;1605614;87;21495;-69
2021/07/29 02:40:08;;;;;;;9.98;4.05;;;;;;;21.49;100.00;98574.70;1581461;88;20964;-69
2021/07/29 02:42:37;;;;;;;16.73;4.30;;;;;;;21.55;100.00;98574.33;1615452;87;20999;-68
2021/07/29 02:45:08;;;;;;;8.63;4.42;;;;;;;21.60;100.00;98576.73;1599543;88;20944;-69
2021/07/29 02:47:36;;;;;;;33.25;5.72;;;;;;;21.63;100.00;98569.37;1575243;89;20928;-68
2021/07/29 02:50:08;;;;;;;14.93;4.30;;;;;;;21.65;100.00;98566.11;1597913;89;21474;-68
2021/07/29 02:52:38;;;;;;;71.72;7.75;;;;;;;21.65;100.00;98564.77;1603354;88;21527;-69
2021/07/29 02:55:08;;;;;;;164.90;15.63;;;;;;;21.63;100.00;98563.13;1580969;89;21498;-68
2021/07/29 02:57:39;;;;;;;27.32;5.70;;;;;;;21.60;100.00;98554.79;1599617;89;21470;-68
2021/07/29 03:00:09;;;;;;;10.23;4.05;;;;;;;21.59;100.00;98556.22;1597703;88;20980;-68
2021/07/29 03:02:38;;;;;;;8.75;4.25;;;;;;;21.56;100.00;98555.93;1602273;88;21077;-68
2021/07/29 03:05:09;;;;;;;11.70;4.35;;;;;;;21.56;100.00;98562.64;1613783;87;21571;-71
2021/07/29 03:07:38;;;;;;;13.80;4.83;;;;;;;21.56;100.00;98560.44;1597010;88;20996;-69
2021/07/29 03:10:12;;;;;;;9.13;4.62;;;;;;;21.56;100.00;98556.41;1580531;89;21460;-66
2021/07/29 03:12:42;;;;;;;10.63;4.40;;;;;;;21.56;100.00;98547.02;1638193;87;21561;-69
2021/07/29 03:15:12;;;;;;;10.85;4.47;;;;;;;21.56;100.00;98565.80;1610492;87;21968;-72
2021/07/29 03:17:42;;;;;;;9.43;4.67;;;;;;;21.57;100.00;98566.19;1574550;89;21083;-70
2021/07/29 03:20:12;;;;;;;9.28;4.40;;;;;;;21.59;100.00;98564.27;1584928;89;21039;-69
2021/07/29 03:22:41;;;;;;;10.88;4.58;;;;;;;21.60;100.00;98564.18;1588289;89;21070;-68
2021/07/29 03:25:11;;;;;;;7.08;4.22;;;;;;;21.62;100.00;98565.43;1593809;89;21019;-68
2021/07/29 03:27:41;;;;;;;21.55;5.37;;;;;;;21.63;100.00;98563.13;1606603;87;21475;-68
2021/07/29 03:30:12;;;;;;;25.65;4.60;;;;;;;21.64;100.00;98566.20;1599786;88;20964;-69
2021/07/29 03:32:43;;;;;;;22.20;4.05;;;;;;;21.65;100.00;98570.14;1599307;88;21160;-68
2021/07/29 03:35:15;;;;;;;22.98;4.12;;;;;;;21.67;100.00;98569.56;1599569;89;21067;-69
2021/07/29 03:37:44;;;;;;;;;;;;;;;21.67;100.00;98570.05;1602494;89;21570;-66
2021/07/29 03:40:14;;;;;;;8.33;3.80;;;;;;;21.65;100.00;98567.45;1605808;88;20559;-69
2021/07/29 03:42:42;;;;;;;14.93;5.10;;;;;;;21.61;100.00;98569.07;1649602;87;21071;-68
2021/07/29 03:45:13;;;;;;;8.43;4.53;;;;;;;21.56;100.00;98575.19;1639919;85;21544;-69
2021/07/29 03:47:43;;;;;;;150.42;15.58;;;;;;;21.51;100.00;98578.63;1606826;87;20931;-69
2021/07/29 03:50:13;;;;;;;24.30;5.20;;;;;;;21.50;100.00;98583.13;1614928;87;21528;-69
2021/07/29 03:52:42;;;;;;;11.20;4.25;;;;;;;21.52;100.00;98589.27;1604961;88;21166;-69
2021/07/29 03:55:11;;;;;;;14.38;4.50;;;;;;;21.53;100.00;98584.30;1604572;88;21575;-68
2021/07/29 03:57:40;;;;;;;8.53;3.95;;;;;;;21.55;100.00;98586.88;1578965;89;20983;-69
2021/07/29 04:00:10;;;;;;;9.08;4.30;;;;;;;21.56;100.00;98582.77;1581730;89;20986;-71
2021/07/29 04:02:39;;;;;;;19.70;4.90;;;;;;;21.60;100.00;98583.45;1595005;89;20889;-70
2021/07/29 04:05:09;;;;;;;7.30;3.67;;;;;;;21.63;100.00;98572.53;1587554;89;21446;-70
2021/07/29 04:07:37;;;;;;;40.48;6.60;;;;;;;21.68;100.00;98569.09;1565586;90;20995;-69
2021/07/29 04:10:07;;;;;;;15.38;4.55;;;;;;;21.74;100.00;98569.19;1631280;86;20884;-69
2021/07/29 04:12:35;;;;;;;11.88;4.00;;;;;;;21.76;100.00;98563.25;1623594;86;20964;-67
2021/07/29 04:15:05;;;;;;;13.05;4.78;;;;;;;21.79;100.00;98568.47;1637797;85;20910;-68
2021/07/29 04:17:34;;;;;;;56.98;6.35;;;;;;;21.80;100.00;98567.52;1617073;87;21118;-67
2021/07/29 04:20:02;;;;;;;13.72;4.25;;;;;;;21.79;100.00;98568.47;1626015;85;20971;-67
2021/07/29 04:22:31;;;;;;;16.57;3.83;;;;;;;21.84;100.00;98555.63;1594319;88;21229;-67
2021/07/29 04:25:02;;;;;;;8.55;3.47;;;;;;;21.92;100.00;98547.48;1575344;89;21070;-72
2021/07/29 04:27:32;;;;;;;26.90;4.72;;;;;;;22.03;100.00;98554.91;1617975;87;21117;-68
2021/07/29 04:30:01;;;;;;;16.40;4.45;;;;;;;22.10;100.00;98550.88;1620565;87;21225;-70
2021/07/29 04:32:34;;;;;;;23.30;5.17;;;;;;;22.17;100.00;98559.42;1645049;87;20903;-68
2021/07/29 04:34:58;;;;;;;14.87;4.40;;;;;;;22.19;100.00;98553.47;1621445;86;20997;-68
2021/07/29 04:37:28;;;;;;;8.48;3.83;;;;;;;22.18;100.00;98546.37;1621534;87;22220;-71
2021/07/29 04:39:56;;;;;;;24.18;5.10;;;;;;;22.19;100.00;98547.61;1629277;87;21003;-70
2021/07/29 04:42:25;;;;;;;10.58;4.25;;;;;;;22.22;100.00;98546.08;1645708;85;21117;-69
2021/07/29 04:44:55;;;;;;;11.60;4.15;;;;;;;22.25;100.00;98545.05;1643400;86;21070;-69
2021/07/29 04:47:23;;;;;;;15.93;4.80;;;;;;;22.25;100.00;98541.89;1629953;87;20985;-68
2021/07/29 04:49:52;;;;;;;11.25;4.78;;;;;;;22.29;100.00;98543.42;1618849;87;20981;-69
2021/07/29 04:52:20;;;;;;;14.40;4.70;;;;;;;22.35;100.00;98545.33;1626034;87;20997;-69
2021/07/29 04:54:48;;;;;;;15.88;4.65;;;;;;;22.39;100.00;98544.17;1641670;87;21961;-70
2021/07/29 04:57:16;;;;;;;27.93;4.90;;;;;;;22.42;100.00;98548.88;1636281;85;20991;-71
2021/07/29 04:59:44;;;;;;;14.58;3.67;;;;;;;22.44;100.00;98550.98;1619181;87;20938;-70
2021/07/29 05:02:14;;;;;;;12.68;4.28;;;;;;;22.44;100.00;98550.98;1618922;87;20957;-69
2021/07/29 05:04:42;;;;;;;13.30;4.25;;;;;;;22.41;100.00;98544.94;1611332;87;21483;-69
2021/07/29 05:07:12;;;;;;;9.65;3.70;;;;;;;22.40;100.00;98536.50;1648370;87;21551;-69
2021/07/29 05:09:41;;;;;;;8.18;3.85;;;;;;;22.41;100.00;98539.09;1625295;85;21450;-70
2021/07/29 05:12:09;;;;;;;12.47;4.58;;;;;;;22.46;100.00;98542.34;1639219;87;21047;-66
2021/07/29 05:14:38;;;;;;;20.02;4.35;;;;;;;22.53;100.00;98540.13;1635586;85;21019;-66
2021/07/29 05:17:07;;;;;;;20.10;9.50;;;;;;;22.58;100.00;98538.86;1623546;87;21094;-66
2021/07/29 05:19:35;;;;;;;13.08;4.62;;;;;;;22.65;100.00;98537.98;1588851;89;21341;-65
2021/07/29 05:22:05;;;;;;;12.33;4.40;;;;;;;22.71;100.00;98535.41;1575232;90;21064;-67
2021/07/29 05:24:34;;;;;;;8.33;3.98;;;;;;;22.77;100.00;98534.52;1581000;89;20996;-68
2021/07/29 05:27:04;;;;;;;11.43;4.55;;;;;;;22.81;100.00;98533.88;1631021;85;20984;-70
2021/07/29 05:29:32;;;;;;;11.28;3.77;;;;;;;22.88;100.00;98541.44;1636923;86;20995;-70
2021/07/29 05:32:00;;;;;;;8.75;3.75;;;;;;;22.96;100.00;98554.86;1636425;86;21146;-70
2021/07/29 05:34:28;;;;;;;13.48;3.55;;;;;;;23.04;100.00;98561.46;1631897;86;20940;-70
2021/07/29 05:36:58;;;;;;;9.60;3.90;;;;;;;23.13;100.00;98554.61;1634727;87;20912;-69
2021/07/29 05:39:31;;;;;;;10.60;3.92;;;;;;;23.22;100.00;98559.41;1632617;86;20976;-68
2021/07/29 05:42:01;;;;;;;11.80;3.83;;;;;;;23.32;100.00;98559.16;1602591;87;20980;-67
2021/07/29 05:44:29;;;;;;;7.37;3.62;;;;;;;23.46;100.00;98552.84;1617651;87;21807;-67
2021/07/29 05:46:56;;;;;;;12.68;3.83;;;;;;;23.56;100.00;98556.67;1592469;89;20903;-68
2021/07/29 05:49:24;;;;;;;12.00;4.00;;;;;;;23.64;100.00;98555.66;1616816;87;21022;-69
2021/07/29 05:51:54;;;;;;;8.15;3.50;;;;;;;23.76;100.00;98554.84;1610505;86;20947;-69
2021/07/29 05:54:23;;;;;;;9.38;3.77;;;;;;;23.84;100.00;98547.58;1604665;88;20973;-69
2021/07/29 05:56:52;;;;;;;10.00;4.40;;;;;;;23.96;100.00;98539.98;1575673;89;21181;-73
2021/07/29 05:59:22;;;;;;;6.33;3.72;;;;;;;24.07;100.00;98543.27;1620391;87;20983;-69
2021/07/29 06:01:51;;;;;;;10.78;4.10;;;;;;;24.15;100.00;98540.92;1623315;87;21003;-69
2021/07/29 06:04:20;;;;;;;10.58;4.20;;;;;;;24.24;100.00;98534.88;1608459;87;20968;-66
2021/07/29 06:06:49;;;;;;;8.83;4.35;;;;;;;24.33;100.00;98536.94;1627082;87;20917;-63
2021/07/29 06:09:21;;;;;;;16.17;4.28;;;;;;;24.40;100.00;98537.36;1639232;87;22251;-75
2021/07/29 06:11:48;;;;;;;17.37;5.20;;;;;;;24.48;100.00;98538.52;1628156;87;22972;-74
2021/07/29 06:14:16;;;;;;;25.62;4.67;;;;;;;24.57;100.00;98541.03;1636746;86;21682;-68
2021/07/29 06:16:44;;;;;;;14.35;5.05;;;;;;;24.66;100.00;98547.63;1603629;88;21580;-69
2021/07/29 06:19:28;;;;;;;11.88;4.50;;;;;;;24.76;100.00;98540.09;1604468;88;21121;-68
2021/07/29 06:21:47;;;;;;;8.83;4.15;;;;;;;24.88;100.00;98538.81;1598528;89;21149;-68
2021/07/29 06:24:15;;;;;;;11.48;4.67;;;;;;;24.95;100.00;98541.42;1599544;88;20900;-68
2021/07/29 06:26:43;;;;;;;11.80;4.58;;;;;;;25.03;100.00;98545.80;1599689;88;21598;-68
2021/07/29 06:29:12;;;;;;;11.63;4.53;;;;;;;25.09;100.00;98545.37;1599666;88;21228;-68
2021/07/29 06:31:39;;;;;;;11.73;4.40;;;;;;;25.15;100.00;98538.65;1599586;88;20948;-71
2021/07/29 06:34:07;;;;;;;9.18;4.37;;;;;;;25.25;100.00;98536.98;1599514;88;21532;-67
2021/07/29 06:36:35;;;;;;;13.10;4.97;;;;;;;25.35;100.00;98533.95;1599497;89;20973;-67
2021/07/29 06:39:04;;;;;;;10.63;4.33;;;;;;;25.43;100.00;98533.73;1599617;89;20980;-68
2021/07/29 06:41:32;;;;;;;27.85;5.17;;;;;;;25.51;100.00;98534.50;1599622;89;21519;-70
2021/07/29 06:44:00;;;;;;;9.73;4.70;;;;;;;25.63;100.00;98535.42;1599633;88;20999;-72
2021/07/29 06:46:29;;;;;;;12.20;4.72;;;;;;;25.75;100.00;98528.23;1599598;88;21198;-73
2021/07/29 06:48:57;;;;;;;12.20;4.85;;;;;;;25.85;100.00;98519.78;1604625;89;21040;-73
2021/07/29 06:51:25;;;;;;;17.35;4.80;;;;;;;25.93;100.00;98519.55;1599547;89;20952;-73
2021/07/29 06:53:53;;;;;;;12.98;4.60;;;;;;;26.01;100.00;98511.73;1599865;89;20913;-72
2021/07/29 06:56:20;;;;;;;13.18;4.62;;;;;;;26.10;100.00;98511.98;1599630;88;20920;-72
2021/07/29 06:58:48;;;;;;;11.25;4.22;;;;;;;26.17;100.00;98515.91;1599601;88;21195;-72
2021/07/29 07:01:16;;;;;;;9.40;4.12;;;;;;;26.25;100.00;98508.05;1599613;88;21015;-72
2021/07/29 07:03:46;;;;;;;10.70;4.55;;;;;;;26.34;100.00;98509.55;1599859;88;20979;-72
2021/07/29 07:06:15;;;;;;;12.98;4.37;;;;;;;26.43;100.00;98503.03;1580341;89;21638;-72
2021/07/29 07:08:47;;;;;;;11.50;4.28;;;;;;;26.53;100.00;98503.54;1589057;89;21063;-72
2021/07/29 07:11:17;;;;;;;11.75;3.98;;;;;;;26.63;100.00;98499.59;1588668;89;21174;-72
2021/07/29 07:13:47;;;;;;;11.18;4.25;;;;;;;26.72;100.00;98498.83;1589441;89;21111;-72
2021/07/29 07:16:16;;;;;;;10.03;3.67;;;;;;;26.82;100.00;98490.31;1589629;90;20985;-71
2021/07/29 07:18:44;;;;;;;12.47;4.00;;;;;;;26.94;100.00;98497.41;1590213;90;21032;-72
2021/07/29 07:21:12;;;;;;;9.75;3.85;;;;;;;27.02;100.00;98493.27;1590053;90;21603;-72
2021/07/29 07:23:40;;;;;;;11.28;3.72;;;;;;;27.11;100.00;98491.14;1590036;90;21222;-72
2021/07/29 07:26:17;;;;;;;13.65;4.10;;;;;;;27.20;100.00;98491.22;1596633;89;20941;-72
2021/07/29 07:28:45;;;;;;;7.90;4.20;;;;;;;27.30;100.00;98495.36;1590219;89;20985;-72
2021/07/29 07:31:14;;;;;;;8.80;4.03;;;;;;;27.39;100.00;98489.16;1589862;90;38420;-72
2021/07/29 07:33:43;;;;;;;9.90;3.70;;;;;;;27.47;100.00;98488.53;1590014;90;20990;-71
2021/07/29 07:36:11;;;;;;;11.97;4.08;;;;;;;27.56;100.00;98485.89;1590469;89;21170;-74
2021/07/29 07:38:40;;;;;;;9.50;3.65;;;;;;;27.67;100.00;98476.87;1590050;89;20935;-68
2021/07/29 07:41:09;;;;;;;14.68;3.80;;;;;;;27.74;100.00;98471.28;1590047;90;20955;-67
2021/07/29 07:43:38;;;;;;;9.08;3.40;;;;;;;27.84;100.00;98480.81;1590042;89;20907;-70
2021/07/29 07:46:07;;;;;;;7.87;3.72;;;;;;;27.97;100.00;98483.34;1590186;89;20983;-71
2021/07/29 07:48:35;;;;;;;10.15;4.10;;;;;;;28.06;100.00;98479.32;1589961;90;21150;-70
2021/07/29 07:51:03;;;;;;;12.95;3.80;;;;;;;28.14;100.00;98482.21;1590000;89;21018;-70
2021/07/29 07:53:31;;;;;;;10.58;3.83;;;;;;;28.22;100.00;98478.81;1590069;90;21085;-70
2021/07/29 07:56:05;;;;;;;17.12;4.90;;;;;;;28.32;100.00;98475.67;1590020;90;21118;-70
2021/07/29 07:58:34;;;;;;;10.30;4.33;;;;;;;28.44;100.00;98472.39;1590205;89;21034;-71
2021/07/29 08:01:07;;;;;;;11.40;4.12;;;;;;;28.56;100.00;98465.86;1590169;90;21768;-71
2021/07/29 08:03:39;;;;;;;11.20;4.10;;;;;;;28.66;100.00;98465.88;1579576;90;21010;-71
2021/07/29 08:06:13;;;;;;;13.03;4.22;;;;;;;28.77;100.00;98458.47;1559543;90;21071;-71
2021/07/29 08:08:44;;;;;;;13.90;4.00;;;;;;;28.88;100.00;98466.19;1582379;88;21112;-71
2021/07/29 08:11:13;;;;;;;12.37;4.53;;;;;;;29.01;100.00;98462.70;1572577;90;21043;-70
2021/07/29 08:13:41;;;;;;;12.37;3.72;;;;;;;29.09;100.00;98462.84;1568832;90;22620;-71
2021/07/29 08:16:09;;;;;;;12.03;3.80;;;;;;;29.17;100.00;98460.27;1605506;87;20945;-71
2021/07/29 08:18:37;;;;;;;12.33;3.75;;;;;;;29.25;100.00;98459.55;1573409;89;20946;-71
2021/07/29 08:21:16;;;;;;;9.78;4.67;;;;;;;29.36;100.00;98454.00;1605641;88;20949;-71
2021/07/29 08:23:43;;;;;;;13.28;3.77;;;;;;;29.50;100.00;98456.30;1605601;88;21626;-70
2021/07/29 08:26:13;;;;;;;11.00;3.77;;;;;;;29.66;100.00;98451.62;1573347;89;21520;-71
2021/07/29 08:28:41;;;;;;;10.28;4.50;;;;;;;29.76;100.00;98455.17;1605813;88;21158;-72
2021/07/29 08:31:10;;;;;;;12.05;4.30;;;;;;;29.87;100.00;98450.09;1605646;88;21494;-71
2021/07/29 08:33:38;;;;;;;9.48;4.03;;;;;;;29.98;99.97;98449.91;1573419;89;21164;-72
2021/07/29 08:36:13;;;;;;;14.73;4.22;;;;;;;30.08;97.82;98445.31;1605812;88;20942;-71
2021/07/29 08:38:43;;;;;;;16.48;3.80;;;;;;;30.16;97.24;98448.15;1605185;88;21630;-71
2021/07/29 08:41:18;;;;;;;13.40;4.03;;;;;;;30.26;92.59;98448.10;1573293;89;21021;-71
2021/07/29 08:43:47;;;;;;;9.88;3.52;;;;;;;30.34;90.00;98445.52;1590600;88;20986;-70
2021/07/29 08:46:21;;;;;;;11.30;3.50;;;;;;;30.42;90.64;98441.53;1573494;89;21450;-70
2021/07/29 08:48:52;;;;;;;8.78;3.72;;;;;;;30.55;91.46;98429.78;1605905;88;21076;-71
2021/07/29 08:51:23;;;;;;;9.35;3.45;;;;;;;30.67;84.74;98429.95;1573550;89;21015;-70
2021/07/29 08:53:53;;;;;;;16.07;3.72;;;;;;;30.79;83.80;98427.03;1605836;88;21560;-71
2021/07/29 08:56:24;;;;;;;12.68;4.58;;;;;;;30.92;85.92;98428.86;1573358;89;21514;-71
2021/07/29 08:58:56;;;;;;;13.00;3.90;;;;;;;31.06;82.67;98431.05;1605860;88;21633;-71
2021/07/29 09:01:44;;;;;;;14.03;4.22;;;;;;;31.13;78.38;98436.22;1573444;89;20958;-71
2021/07/29 09:04:15;;;;;;;6.87;3.55;;;;;;;31.16;77.43;98437.80;1605575;88;21314;-71
2021/07/29 09:07:03;;;;;;;24.55;4.85;;;;;;;31.21;80.97;98436.31;1570663;89;20936;-71
2021/07/29 09:09:42;;;;;;;11.88;3.80;;;;;;;31.28;77.62;98437.44;1623418;87;20918;-71
2021/07/29 09:12:21;;;;;;;10.10;3.50;;;;;;;31.35;77.82;98435.44;1622502;87;21047;-67
2021/07/29 09:14:52;;;;;;;8.30;3.92;;;;;;;31.42;78.42;98441.46;1600037;88;21087;-65
2021/07/29 09:17:20;;;;;;;9.78;4.15;;;;;;;31.53;84.54;98435.75;1621049;87;21142;-69
2021/07/29 09:19:53;;;;;;;14.25;4.28;;;;;;;31.63;82.35;98432.42;1622383;87;20989;-68
2021/07/29 09:22:24;;;;;;;11.93;3.85;;;;;;;31.69;79.58;98432.28;1620898;87;21618;-65
2021/07/29 09:25:11;;;;;;;15.53;4.83;;;;;;;31.72;81.22;98427.94;1623004;87;21021;-69
2021/07/29 09:27:42;;;;;;;11.75;4.05;;;;;;;31.82;90.19;98427.83;1622297;87;21589;-69
2021/07/29 09:30:49;;;;;;;11.00;3.65;;;;;;;32.00;91.55;98420.94;1624421;87;21518;-69
2021/07/29 09:33:26;;;;;;;11.97;3.83;;;;;;;32.20;92.40;98430.11;1623118;87;21527;-75
2021/07/29 09:35:56;;;;;;;12.13;4.33;;;;;;;32.36;86.65;98423.89;1622997;87;20924;-69
2021/07/29 09:38:29;;;;;;;11.50;3.80;;;;;;;32.52;87.23;98423.95;1623514;87;20937;-66
2021/07/29 09:41:06;;;;;;;10.03;3.77;;;;;;;32.66;82.13;98422.48;1623122;87;21068;-67
2021/07/29 09:43:38;;;;;;;13.65;4.00;;;;;;;32.76;77.98;98423.19;1617260;87;21171;-71
2021/07/29 09:46:17;;;;;;;11.73;3.92;;;;;;;32.81;75.27;98416.75;1620222;87;20924;-70
2021/07/29 09:48:45;;;;;;;10.72;4.17;;;;;;;32.86;74.46;98414.36;1623549;87;21515;-71
2021/07/29 09:51:15;;;;;;;8.40;3.67;;;;;;;32.93;74.90;98412.33;1623346;87;21520;-71
2021/07/29 09:53:44;;;;;;;41.73;5.35;;;;;;;33.00;72.00;98411.48;1623151;87;21017;-68
2021/07/29 09:56:13;;;;;;;10.30;3.90;;;;;;;33.16;75.33;98410.66;1623363;87;21143;-69
2021/07/29 09:58:42;;;;;;;8.73;3.50;;;;;;;33.26;72.96;98416.81;1622575;87;20996;-75
2021/07/29 10:01:11;;;;;;;9.23;3.85;;;;;;;33.36;69.88;98412.58;1621049;87;20952;-74
2021/07/29 10:03:43;;;;;;;9.13;4.12;;;;;;;33.42;70.63;98400.95;1606912;88;20969;-70
2021/07/29 10:06:19;;;;;;;17.42;5.03;;;;;;;33.51;73.83;98405.89;1605403;87;20973;-70
2021/07/29 10:08:59;;;;;;;14.38;3.62;;;;;;;33.57;72.91;98404.69;1632422;86;21982;-70
2021/07/29 10:11:28;;;;;;;9.90;3.65;;;;;;;33.63;70.54;98397.70;1634500;86;21005;-69
2021/07/29 10:13:56;;;;;;;8.15;3.65;;;;;;;33.61;66.84;98390.19;1626401;86;20963;-69
2021/07/29 10:16:49;;;;;;;10.35;4.05;;;;;;;33.58;65.40;98398.19;1579414;89;20949;-70
2021/07/29 10:19:18;;;;;;;9.43;3.70;;;;;;;33.62;63.11;98394.63;1596144;88;21838;-69
2021/07/29 10:21:47;;;;;;;11.08;3.92;;;;;;;33.63;59.86;98395.82;1614341;87;21149;-69
2021/07/29 10:24:18;;;;;;;10.15;4.10;;;;;;;33.66;60.16;98391.89;1598080;88;20948;-70
2021/07/29 10:27:10;;;;;;;12.65;3.95;;;;;;;33.66;59.18;98396.84;1610726;87;21032;-68
2021/07/29 10:29:39;;;;;;;8.85;3.70;;;;;;;33.65;57.55;98396.50;1600582;87;20943;-70
2021/07/29 10:32:12;;;;;;;12.80;3.75;;;;;;;33.62;56.29;98396.85;1562690;91;21075;-68
2021/07/29 10:34:40;;;;;;;7.53;3.67;;;;;;;33.65;58.35;98396.50;1588184;89;21122;-69
2021/07/29 10:37:11;;;;;;;9.98;3.65;;;;;;;33.72;59.15;98392.04;1637829;86;21008;-69
2021/07/29 10:40:00;;;;;;;10.60;3.72;;;;;;;33.85;58.85;98387.42;1634693;87;21034;-68
2021/07/29 10:42:28;;;;;;;12.23;4.45;;;;;;;33.99;58.04;98383.10;1608459;87;20912;-69
2021/07/29 10:44:58;;;;;;;10.50;4.05;;;;;;;34.13;61.04;98389.23;1596633;88;21032;-64
2021/07/29 10:47:38;;;;;;;8.50;3.87;;;;;;;34.23;59.26;98389.02;1589965;90;21114;-69
2021/07/29 10:50:10;;;;;;;13.72;3.77;;;;;;;34.28;57.47;98390.20;1575662;89;21088;-70
2021/07/29 10:52:44;;;;;;;12.73;3.72;;;;;;;34.38;57.73;98390.02;1594893;89;20971;-69
2021/07/29 10:55:11;;;;;;;14.58;4.37;;;;;;;34.49;55.98;98387.39;1587015;90;21016;-71
2021/07/29 10:57:39;;;;;;;7.58;3.80;;;;;;;34.54;57.16;98390.47;1582521;90;21611;-73
2021/07/29 11:00:08;;;;;;;9.48;3.90;;;;;;;34.59;54.27;98388.05;1589797;90;21167;-68
2021/07/29 11:02:49;;;;;;;11.00;3.58;;;;;;;34.58;52.94;98384.45;1589622;90;20924;-70
2021/07/29 11:05:20;;;;;;;17.70;4.42;;;;;;;34.57;52.31;98382.75;1589793;90;20945;-69
2021/07/29 11:07:44;;;;;;;10.40;4.10;;;;;;;34.56;51.22;98382.93;1573663;89;21055;-69
2021/07/29 11:10:18;;;;;;;9.83;3.75;;;;;;;34.52;50.80;98372.81;1620586;87;22151;-68
2021/07/29 11:12:47;;;;;;;10.08;4.05;;;;;;;34.59;53.10;98372.98;1621572;88;21158;-70
2021/07/29 11:15:14;;;;;;;17.95;4.30;;;;;;;34.62;50.33;98363.03;1621001;87;20939;-69
2021/07/29 11:17:42;;;;;;;12.00;3.92;;;;;;;34.63;49.95;98364.73;1621985;87;21007;-70
2021/07/29 11:20:11;;;;;;;13.03;3.92;;;;;;;34.72;48.59;98363.13;1621759;87;20959;-69
2021/07/29 11:22:47;;;;;;;10.23;3.95;;;;;;;34.80;49.61;98358.11;1622122;88;21696;-70
2021/07/29 11:25:16;;;;;;;12.40;3.85;;;;;;;34.83;49.01;98363.26;1621953;87;21144;-69
2021/07/29 11:27:44;;;;;;;12.03;3.85;;;;;;;34.86;49.61;98358.78;1622213;88;21452;-68
2021/07/29 11:30:14;;;;;;;17.57;4.35;;;;;;;34.91;50.87;98356.86;1621918;88;20992;-69
2021/07/29 11:32:44;;;;;;;15.08;4.20;;;;;;;35.00;51.66;98355.28;1622184;88;20983;-70
2021/07/29 11:35:15;;;;;;;12.37;3.37;;;;;;;35.10;48.82;98356.91;1620491;87;21578;-69
2021/07/29 11:37:45;;;;;;;9.83;3.70;;;;;;;35.15;50.53;98342.14;1621157;87;21212;-70
2021/07/29 11:40:22;;;;;;;11.28;3.77;;;;;;;35.22;49.63;98344.47;1617886;87;21000;-69